Time,TemperatureF,DewpointF,PressureIn,WindDirection,WindDirectionDegrees,WindSpeedMPH,WindSpeedGustMPH,Humidity,HourlyPrecipIn,Conditions,Clouds,dailyrainin,SoftwareType,DateUTC
2013-08-15 00:09:00,70.8,54.0,29.85,North,5,0.0,0.0,56,0.00,,,0.00,weatherlink.com 1.10,2013-08-15 06:09:00,
2013-08-15 00:24:00,70.2,55.0,29.85,North,5,2.0,2.0,59,0.00,,,0.00,weatherlink.com 1.10,2013-08-15 06:24:00,
2013-08-15 00:39:00,69.1,55.0,29.85,North,5,0.0,0.0,61,0.00,,,0.00,weatherlink.com 1.10,2013-08-15 06:39:00,
2013-08-15 00:54:00,68.9,55.0,29.84,North,5,1.0,3.0,62,0.00,,,0.00,weatherlink.com 1.10,2013-08-15 06:54:00,
2013-08-15 01:09:00,68.2,55.0,29.85,North,5,4.0,5.0,64,0.00,,,0.00,weatherlink.com 1.10,2013-08-15 07:09:00,
2013-08-15 01:24:00,67.7,55.0,29.85,North,5,0.0,2.0,64,0.00,,,0.00,weatherlink.com 1.10,2013-08-15 07:24:00,
2013-08-15 01:39:00,67.1,55.0,29.85,North,5,3.0,5.0,66,0.00,,,0.00,weatherlink.com 1.10,2013-08-15 07:39:00,
2013-08-15 01:54:00,66.9,56.0,29.84,North,5,2.0,4.0,68,0.00,,,0.00,weatherlink.com 1.10,2013-08-15 07:54:00,
2013-08-15 02:09:00,66.4,54.0,29.84,NNE,13,4.0,7.0,65,0.00,,,0.00,weatherlink.com 1.10,2013-08-15 08:09:00,
2013-08-15 02:24:00,66.1,55.0,29.84,NNE,31,4.0,5.0,68,0.00,,,0.00,weatherlink.com 1.10,2013-08-15 08:24:00,
2013-08-15 02:39:00,65.2,56.0,29.85,NNE,23,4.0,8.0,72,0.00,,,0.00,weatherlink.com 1.10,2013-08-15 08:39:00,
2013-08-15 02:54:00,64.4,56.0,29.84,North,9,8.0,11.0,74,0.00,,,0.00,weatherlink.com 1.10,2013-08-15 08:54:00,
2013-08-15 03:09:00,64.2,56.0,29.85,NNE,14,0.0,3.0,74,0.00,,,0.00,weatherlink.com 1.10,2013-08-15 09:09:00,
2013-08-15 03:24:00,65.9,55.0,29.84,North,11,5.0,7.0,68,0.00,,,0.00,weatherlink.com 1.10,2013-08-15 09:24:00,
2013-08-15 03:39:00,65.9,55.0,29.85,NNE,18,3.0,6.0,69,0.00,,,0.00,weatherlink.com 1.10,2013-08-15 09:39:00,
2013-08-15 03:54:00,65.0,56.0,29.85,NNE,18,2.0,4.0,73,0.00,,,0.00,weatherlink.com 1.10,2013-08-15 09:54:00,
2013-08-15 04:09:00,64.4,56.0,29.85,NNE,20,3.0,7.0,74,0.00,,,0.00,weatherlink.com 1.10,2013-08-15 10:09:00,
2013-08-15 04:24:00,64.2,56.0,29.84,NNE,20,3.0,5.0,75,0.00,,,0.00,weatherlink.com 1.10,2013-08-15 10:24:00,
2013-08-15 04:39:00,64.4,55.0,29.85,NNE,19,3.0,6.0,72,0.00,,,0.00,weatherlink.com 1.10,2013-08-15 10:39:00,
2013-08-15 04:54:00,64.5,55.0,29.85,North,9,4.0,6.0,71,0.00,,,0.00,weatherlink.com 1.10,2013-08-15 10:54:00,
2013-08-15 05:09:00,65.3,55.0,29.85,North,10,6.0,7.0,69,0.00,,,0.00,weatherlink.com 1.10,2013-08-15 11:09:00,
2013-08-15 05:24:00,65.5,55.0,29.86,North,360,5.0,6.0,68,0.00,,,0.00,weatherlink.com 1.10,2013-08-15 11:24:00,
2013-08-15 05:39:00,65.5,55.0,29.86,North,350,6.0,9.0,68,0.00,,,0.00,weatherlink.com 1.10,2013-08-15 11:39:00,
2013-08-15 05:55:00,65.8,54.0,29.87,NNW,336,6.0,11.0,66,0.00,,,0.00,weatherlink.com 1.10,2013-08-15 11:55:00,
2013-08-15 06:10:00,66.1,54.0,29.87,NNW,345,4.0,11.0,65,0.00,,,0.00,weatherlink.com 1.10,2013-08-15 12:10:00,
2013-08-15 06:25:00,66.2,54.0,29.88,North,355,2.0,9.0,64,0.00,,,0.00,weatherlink.com 1.10,2013-08-15 12:25:00,
2013-08-15 06:40:00,65.8,54.0,29.88,North,355,2.0,4.0,66,0.00,,,0.00,weatherlink.com 1.10,2013-08-15 12:40:00,
2013-08-15 06:55:00,65.3,55.0,29.88,North,355,0.0,3.0,70,0.00,,,0.00,weatherlink.com 1.10,2013-08-15 12:55:00,
2013-08-15 07:10:00,65.6,54.0,29.89,North,355,3.0,3.0,67,0.00,,,0.00,weatherlink.com 1.10,2013-08-15 13:10:00,
2013-08-15 07:25:00,66.4,55.0,29.89,North,10,4.0,6.0,66,0.00,,,0.00,weatherlink.com 1.10,2013-08-15 13:25:00,
2013-08-15 07:40:00,67.8,55.0,29.90,NNE,15,6.0,9.0,64,0.00,,,0.00,weatherlink.com 1.10,2013-08-15 13:40:00,
2013-08-15 07:55:00,68.7,55.0,29.90,NNE,33,6.0,11.0,62,0.00,,,0.00,weatherlink.com 1.10,2013-08-15 13:55:00,
2013-08-15 08:10:00,69.1,55.0,29.90,NE,36,7.0,9.0,62,0.00,,,0.00,weatherlink.com 1.10,2013-08-15 14:10:00,
2013-08-15 08:25:00,69.5,56.0,29.90,NE,42,4.0,8.0,62,0.00,,,0.00,weatherlink.com 1.10,2013-08-15 14:25:00,
2013-08-15 08:40:00,70.4,56.0,29.91,ENE,71,8.0,9.0,60,0.00,,,0.00,weatherlink.com 1.10,2013-08-15 14:40:00,
2013-08-15 08:55:00,70.7,56.0,29.91,NE,55,6.0,8.0,59,0.00,,,0.00,weatherlink.com 1.10,2013-08-15 14:55:00,
2013-08-15 09:10:00,71.5,55.0,29.91,NE,52,5.0,11.0,57,0.00,,,0.00,weatherlink.com 1.10,2013-08-15 15:10:00,
2013-08-15 09:25:00,72.1,55.0,29.91,NNE,23,6.0,8.0,56,0.00,,,0.00,weatherlink.com 1.10,2013-08-15 15:25:00,
2013-08-15 09:40:00,73.0,55.0,29.90,NNE,19,3.0,6.0,54,0.00,,,0.00,weatherlink.com 1.10,2013-08-15 15:40:00,
2013-08-15 09:55:00,74.4,56.0,29.91,NE,36,2.0,7.0,52,0.00,,,0.00,weatherlink.com 1.10,2013-08-15 15:55:00,
2013-08-15 10:10:00,75.5,55.0,29.91,NNE,16,2.0,4.0,49,0.00,,,0.00,weatherlink.com 1.10,2013-08-15 16:10:00,
2013-08-15 10:25:00,77.1,55.0,29.91,SE,136,3.0,6.0,47,0.00,,,0.00,weatherlink.com 1.10,2013-08-15 16:25:00,
2013-08-15 10:40:00,77.3,55.0,29.91,SW,223,6.0,10.0,46,0.00,,,0.00,weatherlink.com 1.10,2013-08-15 16:40:00,
2013-08-15 10:55:00,77.5,55.0,29.91,South,175,4.0,10.0,46,0.00,,,0.00,weatherlink.com 1.10,2013-08-15 16:55:00,
2013-08-15 11:10:00,78.4,55.0,29.90,SSW,204,4.0,14.0,45,0.00,,,0.00,weatherlink.com 1.10,2013-08-15 17:10:00,
2013-08-15 11:25:00,78.5,55.0,29.89,SSW,197,3.0,11.0,45,0.00,,,0.00,weatherlink.com 1.10,2013-08-15 17:25:00,
2013-08-15 11:40:00,79.6,56.0,29.89,SSW,195,5.0,11.0,44,0.00,,,0.00,weatherlink.com 1.10,2013-08-15 17:40:00,
2013-08-15 11:55:00,80.2,54.0,29.88,SSW,202,6.0,13.0,41,0.00,,,0.00,weatherlink.com 1.10,2013-08-15 17:55:00,
2013-08-15 12:10:00,80.6,55.0,29.87,SSE,165,7.0,13.0,41,0.00,,,0.00,weatherlink.com 1.10,2013-08-15 18:10:00,
2013-08-15 12:40:00,82.0,54.0,29.86,SSW,205,7.0,14.0,38,0.00,,,0.00,weatherlink.com 1.10,2013-08-15 18:40:00,
2013-08-15 13:10:00,83.4,53.0,29.85,SW,215,7.0,13.0,35,0.00,,,0.00,weatherlink.com 1.10,2013-08-15 19:10:00,
2013-08-15 13:26:00,84.6,52.0,29.84,SSE,165,2.0,6.0,33,0.00,,,0.00,weatherlink.com 1.10,2013-08-15 19:26:00,
2013-08-15 13:40:00,85.8,52.0,29.83,West,271,3.0,10.0,31,0.00,,,0.00,weatherlink.com 1.10,2013-08-15 19:40:00,
2013-08-15 13:56:00,85.5,52.0,29.82,SSW,213,3.0,5.0,32,0.00,,,0.00,weatherlink.com 1.10,2013-08-15 19:56:00,
2013-08-15 14:11:00,87.3,53.0,29.81,South,183,5.0,9.0,31,0.00,,,0.00,weatherlink.com 1.10,2013-08-15 20:11:00,
2013-08-15 14:26:00,87.8,53.0,29.80,South,188,12.0,17.0,30,0.00,,,0.00,weatherlink.com 1.10,2013-08-15 20:26:00,
2013-08-15 14:41:00,87.2,52.0,29.80,South,172,5.0,16.0,30,0.00,,,0.00,weatherlink.com 1.10,2013-08-15 20:41:00,
2013-08-15 14:56:00,88.7,52.0,29.79,South,179,4.0,13.0,28,0.00,,,0.00,weatherlink.com 1.10,2013-08-15 20:56:00,
2013-08-15 15:11:00,89.6,51.0,29.78,South,177,4.0,11.0,27,0.00,,,0.00,weatherlink.com 1.10,2013-08-15 21:11:00,
2013-08-15 15:26:00,90.1,49.0,29.77,SSE,165,6.0,13.0,24,0.00,,,0.00,weatherlink.com 1.10,2013-08-15 21:26:00,
2013-08-15 15:41:00,90.9,48.0,29.77,South,179,3.0,13.0,23,0.00,,,0.00,weatherlink.com 1.10,2013-08-15 21:41:00,
2013-08-15 15:56:00,90.6,48.0,29.77,NNW,348,9.0,17.0,23,0.00,,,0.00,weatherlink.com 1.10,2013-08-15 21:56:00,
2013-08-15 16:11:00,88.8,37.0,29.77,North,5,16.0,22.0,16,0.00,,,0.00,weatherlink.com 1.10,2013-08-15 22:11:00,
2013-08-15 16:26:00,88.8,39.0,29.77,WNW,294,1.0,15.0,17,0.00,,,0.00,weatherlink.com 1.10,2013-08-15 22:26:00,
2013-08-15 16:41:00,89.4,42.0,29.77,West,270,4.0,6.0,19,0.00,,,0.00,weatherlink.com 1.10,2013-08-15 22:41:00,
2013-08-15 16:56:00,88.5,48.0,29.77,SSW,207,8.0,14.0,25,0.00,,,0.00,weatherlink.com 1.10,2013-08-15 22:56:00,
2013-08-15 17:11:00,88.3,47.0,29.77,SW,230,16.0,21.0,24,0.00,,,0.00,weatherlink.com 1.10,2013-08-15 23:11:00,
2013-08-15 17:26:00,88.5,47.0,29.77,SW,221,15.0,21.0,24,0.00,,,0.00,weatherlink.com 1.10,2013-08-15 23:26:00,
2013-08-15 17:41:00,88.5,44.0,29.76,SW,224,11.0,17.0,21,0.00,,,0.00,weatherlink.com 1.10,2013-08-15 23:41:00,
2013-08-15 17:56:00,88.9,44.0,29.75,SSW,209,9.0,11.0,21,0.00,,,0.00,weatherlink.com 1.10,2013-08-15 23:56:00,
2013-08-15 18:11:00,88.9,45.0,29.75,South,177,7.0,12.0,22,0.00,,,0.00,weatherlink.com 1.10,2013-08-16 00:11:00,
2013-08-15 18:26:00,88.7,45.0,29.75,SSE,162,7.0,12.0,22,0.00,,,0.00,weatherlink.com 1.10,2013-08-16 00:26:00,
2013-08-15 18:41:00,87.9,45.0,29.75,South,175,5.0,12.0,22,0.00,,,0.00,weatherlink.com 1.10,2013-08-16 00:41:00,
2013-08-15 18:56:00,88.0,43.0,29.75,South,175,7.0,11.0,21,0.00,,,0.00,weatherlink.com 1.10,2013-08-16 00:56:00,
2013-08-15 19:11:00,87.8,43.0,29.75,SSE,167,6.0,9.0,21,0.00,,,0.00,weatherlink.com 1.10,2013-08-16 01:11:00,
2013-08-15 19:26:00,87.2,44.0,29.75,South,178,3.0,8.0,22,0.00,,,0.00,weatherlink.com 1.10,2013-08-16 01:26:00,
2013-08-15 19:41:00,85.5,45.0,29.76,South,188,3.0,8.0,24,0.00,,,0.00,weatherlink.com 1.10,2013-08-16 01:41:00,
2013-08-15 19:56:00,84.0,46.0,29.76,South,190,6.0,7.0,26,0.00,,,0.00,weatherlink.com 1.10,2013-08-16 01:56:00,
2013-08-15 20:11:00,83.4,45.0,29.77,South,190,5.0,7.0,26,0.00,,,0.00,weatherlink.com 1.10,2013-08-16 02:11:00,
2013-08-15 20:26:00,82.8,46.0,29.77,South,191,5.0,7.0,27,0.00,,,0.00,weatherlink.com 1.10,2013-08-16 02:26:00,
2013-08-15 20:41:00,82.4,46.0,29.78,South,181,8.0,9.0,28,0.00,,,0.00,weatherlink.com 1.10,2013-08-16 02:41:00,
2013-08-15 20:56:00,81.0,47.0,29.79,South,178,8.0,10.0,30,0.00,,,0.00,weatherlink.com 1.10,2013-08-16 02:56:00,
2013-08-15 21:11:00,80.6,48.0,29.79,SSW,207,8.0,14.0,32,0.00,,,0.00,weatherlink.com 1.10,2013-08-16 03:11:00,
2013-08-15 21:26:00,80.2,49.0,29.80,SW,217,10.0,13.0,33,0.00,,,0.00,weatherlink.com 1.10,2013-08-16 03:26:00,
2013-08-15 21:41:00,79.5,49.0,29.80,SSW,201,7.0,12.0,34,0.00,,,0.00,weatherlink.com 1.10,2013-08-16 03:41:00,
2013-08-15 21:56:00,79.5,50.0,29.80,SSW,203,9.0,15.0,35,0.00,,,0.00,weatherlink.com 1.10,2013-08-16 03:56:00,
2013-08-15 22:11:00,78.8,50.0,29.81,SSW,205,7.0,13.0,36,0.00,,,0.00,weatherlink.com 1.10,2013-08-16 04:11:00,
2013-08-15 22:26:00,78.8,50.0,29.80,SSW,204,11.0,14.0,36,0.00,,,0.00,weatherlink.com 1.10,2013-08-16 04:26:00,
2013-08-15 22:41:00,78.9,50.0,29.81,SSW,209,8.0,17.0,36,0.00,,,0.00,weatherlink.com 1.10,2013-08-16 04:41:00,
2013-08-15 22:56:00,78.3,49.0,29.81,South,190,6.0,15.0,36,0.00,,,0.00,weatherlink.com 1.10,2013-08-16 04:56:00,
2013-08-15 23:11:00,78.1,49.0,29.81,SSW,207,11.0,15.0,36,0.00,,,0.00,weatherlink.com 1.10,2013-08-16 05:11:00,
2013-08-15 23:26:00,77.5,48.0,29.81,South,188,11.0,17.0,36,0.00,,,0.00,weatherlink.com 1.10,2013-08-16 05:26:00,
2013-08-15 23:41:00,76.7,48.0,29.81,South,190,9.0,15.0,37,0.00,,,0.00,weatherlink.com 1.10,2013-08-16 05:41:00,
2013-08-15 23:56:00,76.4,49.0,29.81,South,178,7.0,18.0,38,0.00,,,0.00,weatherlink.com 1.10,2013-08-16 05:56:00,